sensor_id;sensor_type;location;lat;lon;timestamp;temperature;humidity
21035;DHT22;10676;50.848;3.272;2023-05-25T00:00:01;10.80;99.90
21035;DHT22;10676;50.848;3.272;2023-05-25T00:02:30;10.80;99.90
21035;DHT22;10676;50.848;3.272;2023-05-25T00:04:57;10.90;99.90
21035;DHT22;10676;50.848;3.272;2023-05-25T00:07:25;10.80;99.90
21035;DHT22;10676;50.848;3.272;2023-05-25T00:09:51;10.80;99.90
21035;DHT22;10676;50.848;3.272;2023-05-25T00:12:16;10.80;99.90
21035;DHT22;10676;50.848;3.272;2023-05-25T00:14:42;10.80;99.90
21035;DHT22;10676;50.848;3.272;2023-05-25T00:17:08;10.80;99.90
21035;DHT22;10676;50.848;3.272;2023-05-25T00:19:35;10.70;99.90
21035;DHT22;10676;50.848;3.272;2023-05-25T00:22:02;10.70;99.90
21035;DHT22;10676;50.848;3.272;2023-05-25T00:24:29;10.70;99.90
21035;DHT22;10676;50.848;3.272;2023-05-25T00:26:57;10.70;99.90
21035;DHT22;10676;50.848;3.272;2023-05-25T00:29:23;10.70;99.90
21035;DHT22;10676;50.848;3.272;2023-05-25T00:31:50;10.60;99.90
21035;DHT22;10676;50.848;3.272;2023-05-25T00:34:16;10.60;99.90
21035;DHT22;10676;50.848;3.272;2023-05-25T00:36:42;10.60;99.90
21035;DHT22;10676;50.848;3.272;2023-05-25T00:39:08;10.60;99.90
21035;DHT22;10676;50.848;3.272;2023-05-25T00:41:35;10.50;99.90
21035;DHT22;10676;50.848;3.272;2023-05-25T00:44:06;10.50;99.90
21035;DHT22;10676;50.848;3.272;2023-05-25T00:46:36;10.60;99.90
21035;DHT22;10676;50.848;3.272;2023-05-25T00:49:03;10.60;99.90
21035;DHT22;10676;50.848;3.272;2023-05-25T00:51:29;10.60;99.90
21035;DHT22;10676;50.848;3.272;2023-05-25T00:53:57;10.60;99.90
21035;DHT22;10676;50.848;3.272;2023-05-25T00:56:28;10.70;99.90
21035;DHT22;10676;50.848;3.272;2023-05-25T00:58:55;10.70;99.90
21035;DHT22;10676;50.848;3.272;2023-05-25T01:01:24;10.70;99.90
21035;DHT22;10676;50.848;3.272;2023-05-25T01:03:54;10.70;99.90
21035;DHT22;10676;50.848;3.272;2023-05-25T01:06:22;10.80;99.90
21035;DHT22;10676;50.848;3.272;2023-05-25T01:08:53;10.80;99.90
21035;DHT22;10676;50.848;3.272;2023-05-25T01:11:27;10.80;99.90
21035;DHT22;10676;50.848;3.272;2023-05-25T01:13:57;10.70;99.90
21035;DHT22;10676;50.848;3.272;2023-05-25T01:16:23;10.80;99.90
21035;DHT22;10676;50.848;3.272;2023-05-25T01:18:54;10.80;99.90
21035;DHT22;10676;50.848;3.272;2023-05-25T01:21:44;10.80;99.90
21035;DHT22;10676;50.848;3.272;2023-05-25T01:24:39;10.70;99.90
21035;DHT22;10676;50.848;3.272;2023-05-25T01:29:46;10.80;99.90
21035;DHT22;10676;50.848;3.272;2023-05-25T01:32:12;10.80;99.90
21035;DHT22;10676;50.848;3.272;2023-05-25T01:34:39;10.80;99.90
21035;DHT22;10676;50.848;3.272;2023-05-25T01:37:06;10.70;99.90
21035;DHT22;10676;50.848;3.272;2023-05-25T01:39:32;10.70;99.90
21035;DHT22;10676;50.848;3.272;2023-05-25T01:41:57;10.70;99.90
21035;DHT22;10676;50.848;3.272;2023-05-25T01:44:23;10.60;99.90
21035;DHT22;10676;50.848;3.272;2023-05-25T01:47:00;10.60;99.90
21035;DHT22;10676;50.848;3.272;2023-05-25T01:49:50;10.50;99.90
21035;DHT22;10676;50.848;3.272;2023-05-25T01:52:34;10.40;99.90
21035;DHT22;10676;50.848;3.272;2023-05-25T01:55:05;10.40;99.90
21035;DHT22;10676;50.848;3.272;2023-05-25T01:57:34;10.30;99.90
21035;DHT22;10676;50.848;3.272;2023-05-25T02:00:01;10.30;99.90
21035;DHT22;10676;50.848;3.272;2023-05-25T02:02:28;10.30;99.90
21035;DHT22;10676;50.848;3.272;2023-05-25T02:04:54;10.30;99.90
21035;DHT22;10676;50.848;3.272;2023-05-25T02:07:24;10.20;99.90
21035;DHT22;10676;50.848;3.272;2023-05-25T02:09:50;10.20;99.90
21035;DHT22;10676;50.848;3.272;2023-05-25T02:12:16;10.20;99.90
21035;DHT22;10676;50.848;3.272;2023-05-25T02:14:44;10.20;99.90
21035;DHT22;10676;50.848;3.272;2023-05-25T02:17:13;10.20;99.90
21035;DHT22;10676;50.848;3.272;2023-05-25T02:19:38;10.20;99.90
21035;DHT22;10676;50.848;3.272;2023-05-25T02:22:04;10.20;99.90
21035;DHT22;10676;50.848;3.272;2023-05-25T02:24:30;10.20;99.90
21035;DHT22;10676;50.848;3.272;2023-05-25T02:26:56;10.20;99.90
21035;DHT22;10676;50.848;3.272;2023-05-25T02:29:21;10.20;99.90
21035;DHT22;10676;50.848;3.272;2023-05-25T02:31:47;10.20;99.90
21035;DHT22;10676;50.848;3.272;2023-05-25T02:34:13;10.20;99.90
21035;DHT22;10676;50.848;3.272;2023-05-25T02:36:39;10.20;99.90
21035;DHT22;10676;50.848;3.272;2023-05-25T02:39:08;10.20;99.90
21035;DHT22;10676;50.848;3.272;2023-05-25T02:41:34;10.20;99.90
21035;DHT22;10676;50.848;3.272;2023-05-25T02:43:59;10.20;99.90
21035;DHT22;10676;50.848;3.272;2023-05-25T02:46:25;10.20;99.90
21035;DHT22;10676;50.848;3.272;2023-05-25T02:48:51;10.10;99.90
21035;DHT22;10676;50.848;3.272;2023-05-25T02:51:16;10.10;99.90
21035;DHT22;10676;50.848;3.272;2023-05-25T02:53:42;10.10;99.90
21035;DHT22;10676;50.848;3.272;2023-05-25T02:56:08;10.10;99.90
21035;DHT22;10676;50.848;3.272;2023-05-25T02:58:36;10.10;99.90
21035;DHT22;10676;50.848;3.272;2023-05-25T03:01:02;10.10;99.90
21035;DHT22;10676;50.848;3.272;2023-05-25T03:03:29;10.10;99.90
21035;DHT22;10676;50.848;3.272;2023-05-25T03:05:55;10.10;99.90
21035;DHT22;10676;50.848;3.272;2023-05-25T03:08:24;10.10;99.90
21035;DHT22;10676;50.848;3.272;2023-05-25T03:10:50;10.00;99.90
21035;DHT22;10676;50.848;3.272;2023-05-25T03:13:16;10.00;99.90
21035;DHT22;10676;50.848;3.272;2023-05-25T03:15:42;10.00;99.90
21035;DHT22;10676;50.848;3.272;2023-05-25T03:18:07;10.00;99.90
21035;DHT22;10676;50.848;3.272;2023-05-25T03:20:33;9.90;99.90
21035;DHT22;10676;50.848;3.272;2023-05-25T03:22:59;9.90;99.90
21035;DHT22;10676;50.848;3.272;2023-05-25T03:25:25;9.80;99.90
21035;DHT22;10676;50.848;3.272;2023-05-25T03:27:52;9.80;99.90
21035;DHT22;10676;50.848;3.272;2023-05-25T03:30:19;9.70;99.90
21035;DHT22;10676;50.848;3.272;2023-05-25T03:32:45;9.70;99.90
21035;DHT22;10676;50.848;3.272;2023-05-25T03:35:10;9.70;99.90
21035;DHT22;10676;50.848;3.272;2023-05-25T03:37:36;9.70;99.90
21035;DHT22;10676;50.848;3.272;2023-05-25T03:40:02;9.70;99.90
21035;DHT22;10676;50.848;3.272;2023-05-25T03:42:27;9.60;99.90
21035;DHT22;10676;50.848;3.272;2023-05-25T03:44:53;9.70;99.90
21035;DHT22;10676;50.848;3.272;2023-05-25T03:47:19;9.70;99.90
21035;DHT22;10676;50.848;3.272;2023-05-25T03:49:44;9.70;99.90
21035;DHT22;10676;50.848;3.272;2023-05-25T03:52:10;9.70;99.90
21035;DHT22;10676;50.848;3.272;2023-05-25T03:54:36;9.70;99.90
21035;DHT22;10676;50.848;3.272;2023-05-25T03:57:02;9.70;99.90
21035;DHT22;10676;50.848;3.272;2023-05-25T03:59:28;9.70;99.90
21035;DHT22;10676;50.848;3.272;2023-05-25T04:01:54;9.70;99.90
21035;DHT22;10676;50.848;3.272;2023-05-25T04:04:19;9.70;99.90
21035;DHT22;10676;50.848;3.272;2023-05-25T04:06:46;9.70;99.90
21035;DHT22;10676;50.848;3.272;2023-05-25T04:09:16;9.70;99.90
21035;DHT22;10676;50.848;3.272;2023-05-25T04:11:43;9.80;99.90
21035;DHT22;10676;50.848;3.272;2023-05-25T04:14:09;9.90;99.90
21035;DHT22;10676;50.848;3.272;2023-05-25T04:16:35;10.00;99.90
21035;DHT22;10676;50.848;3.272;2023-05-25T04:19:01;10.10;99.90
21035;DHT22;10676;50.848;3.272;2023-05-25T04:21:27;10.20;99.90
21035;DHT22;10676;50.848;3.272;2023-05-25T04:23:53;10.30;99.90
21035;DHT22;10676;50.848;3.272;2023-05-25T04:26:18;10.50;99.90
21035;DHT22;10676;50.848;3.272;2023-05-25T04:28:44;10.70;99.90
21035;DHT22;10676;50.848;3.272;2023-05-25T04:31:11;10.90;99.90
21035;DHT22;10676;50.848;3.272;2023-05-25T04:33:38;11.10;99.90
21035;DHT22;10676;50.848;3.272;2023-05-25T04:36:04;11.20;99.90
21035;DHT22;10676;50.848;3.272;2023-05-25T04:38:30;11.40;99.90
21035;DHT22;10676;50.848;3.272;2023-05-25T04:40:58;11.80;99.90
21035;DHT22;10676;50.848;3.272;2023-05-25T04:43:26;11.90;99.90
21035;DHT22;10676;50.848;3.272;2023-05-25T04:45:54;12.30;99.90
21035;DHT22;10676;50.848;3.272;2023-05-25T04:48:21;12.60;99.90
21035;DHT22;10676;50.848;3.272;2023-05-25T04:50:49;13.00;99.90
21035;DHT22;10676;50.848;3.272;2023-05-25T04:53:15;13.40;99.90
21035;DHT22;10676;50.848;3.272;2023-05-25T04:55:41;13.80;99.90
21035;DHT22;10676;50.848;3.272;2023-05-25T04:58:07;14.20;99.90
21035;DHT22;10676;50.848;3.272;2023-05-25T05:00:32;14.60;99.90
21035;DHT22;10676;50.848;3.272;2023-05-25T05:02:59;15.00;99.90
21035;DHT22;10676;50.848;3.272;2023-05-25T05:05:25;15.40;99.90
21035;DHT22;10676;50.848;3.272;2023-05-25T05:07:51;15.80;99.90
21035;DHT22;10676;50.848;3.272;2023-05-25T05:10:18;16.20;99.90
21035;DHT22;10676;50.848;3.272;2023-05-25T05:12:44;16.70;99.90
21035;DHT22;10676;50.848;3.272;2023-05-25T05:15:10;17.10;99.90
21035;DHT22;10676;50.848;3.272;2023-05-25T05:17:35;17.50;99.90
21035;DHT22;10676;50.848;3.272;2023-05-25T05:20:01;17.80;99.90
21035;DHT22;10676;50.848;3.272;2023-05-25T05:22:29;18.20;99.90
21035;DHT22;10676;50.848;3.272;2023-05-25T05:24:55;18.50;99.90
21035;DHT22;10676;50.848;3.272;2023-05-25T05:27:21;18.80;99.90
21035;DHT22;10676;50.848;3.272;2023-05-25T05:29:46;19.10;99.90
21035;DHT22;10676;50.848;3.272;2023-05-25T05:32:12;19.40;99.90
21035;DHT22;10676;50.848;3.272;2023-05-25T05:34:38;19.50;99.90
21035;DHT22;10676;50.848;3.272;2023-05-25T05:37:04;19.70;99.90
21035;DHT22;10676;50.848;3.272;2023-05-25T05:39:29;20.00;99.90
21035;DHT22;10676;50.848;3.272;2023-05-25T05:41:55;20.30;99.90
21035;DHT22;10676;50.848;3.272;2023-05-25T05:44:21;20.70;99.90
21035;DHT22;10676;50.848;3.272;2023-05-25T05:46:47;21.10;99.90
21035;DHT22;10676;50.848;3.272;2023-05-25T05:49:13;21.40;99.90
21035;DHT22;10676;50.848;3.272;2023-05-25T05:51:39;21.80;99.90
21035;DHT22;10676;50.848;3.272;2023-05-25T05:54:05;22.00;99.90
21035;DHT22;10676;50.848;3.272;2023-05-25T05:56:30;22.30;99.90
21035;DHT22;10676;50.848;3.272;2023-05-25T05:58:56;22.70;99.90
21035;DHT22;10676;50.848;3.272;2023-05-25T06:01:22;23.00;99.90
21035;DHT22;10676;50.848;3.272;2023-05-25T06:03:48;23.40;99.90
21035;DHT22;10676;50.848;3.272;2023-05-25T06:06:14;23.70;99.90
21035;DHT22;10676;50.848;3.272;2023-05-25T06:08:41;23.90;99.90
21035;DHT22;10676;50.848;3.272;2023-05-25T06:11:07;24.10;99.90
21035;DHT22;10676;50.848;3.272;2023-05-25T06:13:33;24.20;99.90
21035;DHT22;10676;50.848;3.272;2023-05-25T06:15:58;24.20;99.90
21035;DHT22;10676;50.848;3.272;2023-05-25T06:18:24;24.30;99.90
21035;DHT22;10676;50.848;3.272;2023-05-25T06:20:50;24.60;99.90
21035;DHT22;10676;50.848;3.272;2023-05-25T06:23:16;24.90;99.90
21035;DHT22;10676;50.848;3.272;2023-05-25T06:25:46;25.20;99.90
21035;DHT22;10676;50.848;3.272;2023-05-25T06:28:12;25.40;99.90
21035;DHT22;10676;50.848;3.272;2023-05-25T06:30:38;25.50;99.50
21035;DHT22;10676;50.848;3.272;2023-05-25T06:33:03;25.60;98.00
21035;DHT22;10676;50.848;3.272;2023-05-25T06:35:29;25.40;97.00
21035;DHT22;10676;50.848;3.272;2023-05-25T06:37:54;25.20;96.90
21035;DHT22;10676;50.848;3.272;2023-05-25T06:40:21;25.10;96.80
21035;DHT22;10676;50.848;3.272;2023-05-25T06:42:46;25.20;96.70
21035;DHT22;10676;50.848;3.272;2023-05-25T06:45:12;25.20;96.10
21035;DHT22;10676;50.848;3.272;2023-05-25T06:47:38;25.40;95.60
21035;DHT22;10676;50.848;3.272;2023-05-25T06:50:04;25.60;95.10
21035;DHT22;10676;50.848;3.272;2023-05-25T06:52:30;25.70;94.50
21035;DHT22;10676;50.848;3.272;2023-05-25T06:54:56;25.90;93.90
21035;DHT22;10676;50.848;3.272;2023-05-25T06:57:22;25.80;93.50
21035;DHT22;10676;50.848;3.272;2023-05-25T06:59:48;25.90;93.30
21035;DHT22;10676;50.848;3.272;2023-05-25T07:02:15;26.10;92.70
21035;DHT22;10676;50.848;3.272;2023-05-25T07:04:40;26.20;91.90
21035;DHT22;10676;50.848;3.272;2023-05-25T07:07:06;26.40;91.50
21035;DHT22;10676;50.848;3.272;2023-05-25T07:09:33;26.50;91.20
21035;DHT22;10676;50.848;3.272;2023-05-25T07:11:59;26.60;90.70
21035;DHT22;10676;50.848;3.272;2023-05-25T07:14:25;26.70;90.20
21035;DHT22;10676;50.848;3.272;2023-05-25T07:16:51;26.90;89.10
21035;DHT22;10676;50.848;3.272;2023-05-25T07:19:16;27.00;88.90
21035;DHT22;10676;50.848;3.272;2023-05-25T07:21:42;27.30;87.50
21035;DHT22;10676;50.848;3.272;2023-05-25T07:24:08;27.50;85.70
21035;DHT22;10676;50.848;3.272;2023-05-25T07:26:34;27.70;84.10
21035;DHT22;10676;50.848;3.272;2023-05-25T07:29:01;27.80;82.50
21035;DHT22;10676;50.848;3.272;2023-05-25T07:31:27;27.80;82.20
21035;DHT22;10676;50.848;3.272;2023-05-25T07:33:52;27.90;81.10
21035;DHT22;10676;50.848;3.272;2023-05-25T07:36:20;27.90;80.60
21035;DHT22;10676;50.848;3.272;2023-05-25T07:38:46;28.10;80.00
21035;DHT22;10676;50.848;3.272;2023-05-25T07:41:12;28.30;78.90
21035;DHT22;10676;50.848;3.272;2023-05-25T07:43:38;28.60;77.00
21035;DHT22;10676;50.848;3.272;2023-05-25T07:46:04;28.60;75.90
21035;DHT22;10676;50.848;3.272;2023-05-25T07:48:30;28.60;75.70
21035;DHT22;10676;50.848;3.272;2023-05-25T07:50:56;28.50;75.90
21035;DHT22;10676;50.848;3.272;2023-05-25T07:53:21;28.70;75.70
21035;DHT22;10676;50.848;3.272;2023-05-25T07:55:47;28.80;74.40
21035;DHT22;10676;50.848;3.272;2023-05-25T07:58:13;29.10;72.90
21035;DHT22;10676;50.848;3.272;2023-05-25T08:00:39;29.40;71.40
21035;DHT22;10676;50.848;3.272;2023-05-25T08:03:05;29.30;71.30
21035;DHT22;10676;50.848;3.272;2023-05-25T08:05:30;29.20;71.20
21035;DHT22;10676;50.848;3.272;2023-05-25T08:07:56;29.50;70.70
21035;DHT22;10676;50.848;3.272;2023-05-25T08:10:22;29.80;70.10
21035;DHT22;10676;50.848;3.272;2023-05-25T08:12:48;30.30;68.80
21035;DHT22;10676;50.848;3.272;2023-05-25T08:15:14;30.80;67.20
21035;DHT22;10676;50.848;3.272;2023-05-25T08:17:40;31.50;65.80
21035;DHT22;10676;50.848;3.272;2023-05-25T08:20:07;32.10;64.40
21035;DHT22;10676;50.848;3.272;2023-05-25T08:22:34;32.00;62.60
21035;DHT22;10676;50.848;3.272;2023-05-25T08:25:04;31.50;61.80
21035;DHT22;10676;50.848;3.272;2023-05-25T08:27:31;30.70;63.30
21035;DHT22;10676;50.848;3.272;2023-05-25T08:29:56;30.00;64.50
21035;DHT22;10676;50.848;3.272;2023-05-25T08:32:22;29.20;66.00
21035;DHT22;10676;50.848;3.272;2023-05-25T08:34:48;28.50;68.00
21035;DHT22;10676;50.848;3.272;2023-05-25T08:37:13;27.70;69.60
21035;DHT22;10676;50.848;3.272;2023-05-25T08:39:39;26.90;71.00
21035;DHT22;10676;50.848;3.272;2023-05-25T08:42:05;26.20;72.90
21035;DHT22;10676;50.848;3.272;2023-05-25T08:44:31;25.50;75.00
21035;DHT22;10676;50.848;3.272;2023-05-25T08:47:02;25.00;76.00
21035;DHT22;10676;50.848;3.272;2023-05-25T08:49:29;24.80;77.00
21035;DHT22;10676;50.848;3.272;2023-05-25T08:51:57;24.80;77.30
21035;DHT22;10676;50.848;3.272;2023-05-25T08:54:34;24.70;76.60
21035;DHT22;10676;50.848;3.272;2023-05-25T08:57:04;24.70;76.60
21035;DHT22;10676;50.848;3.272;2023-05-25T09:02:28;25.30;74.60
21035;DHT22;10676;50.848;3.272;2023-05-25T09:04:58;25.30;74.30
21035;DHT22;10676;50.848;3.272;2023-05-25T09:07:26;25.40;73.30
21035;DHT22;10676;50.848;3.272;2023-05-25T09:09:53;25.90;72.30
21035;DHT22;10676;50.848;3.272;2023-05-25T09:12:19;26.60;71.00
21035;DHT22;10676;50.848;3.272;2023-05-25T09:14:46;27.50;68.90
21035;DHT22;10676;50.848;3.272;2023-05-25T09:17:16;28.20;67.10
21035;DHT22;10676;50.848;3.272;2023-05-25T09:19:43;28.70;66.00
21035;DHT22;10676;50.848;3.272;2023-05-25T09:22:09;29.00;64.40
21035;DHT22;10676;50.848;3.272;2023-05-25T09:24:36;29.30;62.90
21035;DHT22;10676;50.848;3.272;2023-05-25T09:27:02;29.60;62.60
21035;DHT22;10676;50.848;3.272;2023-05-25T09:29:28;29.30;62.30
21035;DHT22;10676;50.848;3.272;2023-05-25T09:31:55;28.70;62.00
21035;DHT22;10676;50.848;3.272;2023-05-25T09:34:21;28.20;63.30
21035;DHT22;10676;50.848;3.272;2023-05-25T09:36:47;27.80;62.90
21035;DHT22;10676;50.848;3.272;2023-05-25T09:39:12;27.10;65.00
21035;DHT22;10676;50.848;3.272;2023-05-25T09:41:41;26.90;66.50
21035;DHT22;10676;50.848;3.272;2023-05-25T09:44:07;27.20;64.00
21035;DHT22;10676;50.848;3.272;2023-05-25T09:46:34;27.20;63.90
21035;DHT22;10676;50.848;3.272;2023-05-25T09:49:03;27.40;64.00
21035;DHT22;10676;50.848;3.272;2023-05-25T09:51:30;27.90;60.80
21035;DHT22;10676;50.848;3.272;2023-05-25T09:53:59;28.30;59.90
21035;DHT22;10676;50.848;3.272;2023-05-25T09:56:26;28.60;60.00
21035;DHT22;10676;50.848;3.272;2023-05-25T09:58:52;29.00;60.10
21035;DHT22;10676;50.848;3.272;2023-05-25T10:01:18;29.40;60.10
21035;DHT22;10676;50.848;3.272;2023-05-25T10:03:47;29.80;59.50
21035;DHT22;10676;50.848;3.272;2023-05-25T10:06:14;30.30;59.50
21035;DHT22;10676;50.848;3.272;2023-05-25T10:08:43;30.80;58.70
21035;DHT22;10676;50.848;3.272;2023-05-25T10:11:12;31.30;57.20
21035;DHT22;10676;50.848;3.272;2023-05-25T10:13:39;31.50;55.40
21035;DHT22;10676;50.848;3.272;2023-05-25T10:16:08;31.50;54.90
21035;DHT22;10676;50.848;3.272;2023-05-25T10:18:40;31.30;55.60
21035;DHT22;10676;50.848;3.272;2023-05-25T10:21:09;31.00;56.30
21035;DHT22;10676;50.848;3.272;2023-05-25T10:23:44;30.70;56.20
21035;DHT22;10676;50.848;3.272;2023-05-25T10:26:15;30.60;56.30
21035;DHT22;10676;50.848;3.272;2023-05-25T10:28:43;30.40;56.90
21035;DHT22;10676;50.848;3.272;2023-05-25T10:31:11;30.30;56.20
21035;DHT22;10676;50.848;3.272;2023-05-25T10:33:38;30.20;56.00
21035;DHT22;10676;50.848;3.272;2023-05-25T10:36:05;29.90;56.30
21035;DHT22;10676;50.848;3.272;2023-05-25T10:38:32;29.90;57.90
21035;DHT22;10676;50.848;3.272;2023-05-25T10:41:02;29.90;57.80
21035;DHT22;10676;50.848;3.272;2023-05-25T10:43:29;30.10;58.00
21035;DHT22;10676;50.848;3.272;2023-05-25T10:45:56;29.90;57.50
21035;DHT22;10676;50.848;3.272;2023-05-25T10:48:21;29.40;58.00
21035;DHT22;10676;50.848;3.272;2023-05-25T10:50:51;28.90;58.60
21035;DHT22;10676;50.848;3.272;2023-05-25T10:53:19;28.80;59.20
21035;DHT22;10676;50.848;3.272;2023-05-25T10:58:18;29.10;58.60
21035;DHT22;10676;50.848;3.272;2023-05-25T11:01:06;29.10;58.00
21035;DHT22;10676;50.848;3.272;2023-05-25T11:06:15;29.30;59.30
21035;DHT22;10676;50.848;3.272;2023-05-25T11:08:56;29.50;58.00
21035;DHT22;10676;50.848;3.272;2023-05-25T11:14:22;29.70;58.20
21035;DHT22;10676;50.848;3.272;2023-05-25T11:17:13;29.40;58.80
21035;DHT22;10676;50.848;3.272;2023-05-25T11:19:50;29.40;58.70
21035;DHT22;10676;50.848;3.272;2023-05-25T11:22:29;29.30;58.80
21035;DHT22;10676;50.848;3.272;2023-05-25T11:24:58;29.10;59.40
21035;DHT22;10676;50.848;3.272;2023-05-25T11:27:28;29.20;58.80
21035;DHT22;10676;50.848;3.272;2023-05-25T11:29:54;29.20;58.50
21035;DHT22;10676;50.848;3.272;2023-05-25T11:32:24;29.20;58.30
21035;DHT22;10676;50.848;3.272;2023-05-25T11:34:52;29.20;59.20
21035;DHT22;10676;50.848;3.272;2023-05-25T11:37:19;29.20;58.70
21035;DHT22;10676;50.848;3.272;2023-05-25T11:39:50;29.30;58.90
21035;DHT22;10676;50.848;3.272;2023-05-25T11:42:18;29.40;58.60
21035;DHT22;10676;50.848;3.272;2023-05-25T11:44:44;29.70;58.20
21035;DHT22;10676;50.848;3.272;2023-05-25T11:47:11;29.90;58.40
21035;DHT22;10676;50.848;3.272;2023-05-25T11:49:46;30.10;57.30
21035;DHT22;10676;50.848;3.272;2023-05-25T11:52:15;30.20;56.50
21035;DHT22;10676;50.848;3.272;2023-05-25T11:54:41;30.00;57.20
21035;DHT22;10676;50.848;3.272;2023-05-25T11:57:33;29.70;58.40
21035;DHT22;10676;50.848;3.272;2023-05-25T11:59:59;29.30;58.60
21035;DHT22;10676;50.848;3.272;2023-05-25T12:02:37;29.00;60.00
21035;DHT22;10676;50.848;3.272;2023-05-25T12:05:03;29.00;59.40
21035;DHT22;10676;50.848;3.272;2023-05-25T12:07:30;28.90;59.40
21035;DHT22;10676;50.848;3.272;2023-05-25T12:10:08;28.90;59.80
21035;DHT22;10676;50.848;3.272;2023-05-25T12:12:45;28.90;59.00
21035;DHT22;10676;50.848;3.272;2023-05-25T12:15:13;29.00;59.10
21035;DHT22;10676;50.848;3.272;2023-05-25T12:17:41;29.20;59.70
21035;DHT22;10676;50.848;3.272;2023-05-25T12:20:08;29.40;58.70
21035;DHT22;10676;50.848;3.272;2023-05-25T12:22:35;29.50;57.70
21035;DHT22;10676;50.848;3.272;2023-05-25T12:25:04;29.30;58.40
21035;DHT22;10676;50.848;3.272;2023-05-25T12:27:30;29.10;59.60
21035;DHT22;10676;50.848;3.272;2023-05-25T12:29:57;28.90;59.80
21035;DHT22;10676;50.848;3.272;2023-05-25T12:32:23;29.00;59.40
21035;DHT22;10676;50.848;3.272;2023-05-25T12:34:49;29.10;59.20
21035;DHT22;10676;50.848;3.272;2023-05-25T12:37:20;29.10;59.00
21035;DHT22;10676;50.848;3.272;2023-05-25T12:39:46;29.20;59.80
21035;DHT22;10676;50.848;3.272;2023-05-25T12:42:13;29.30;59.00
21035;DHT22;10676;50.848;3.272;2023-05-25T12:44:39;29.40;59.00
21035;DHT22;10676;50.848;3.272;2023-05-25T12:49:37;29.40;59.00
21035;DHT22;10676;50.848;3.272;2023-05-25T12:52:04;29.40;58.60
21035;DHT22;10676;50.848;3.272;2023-05-25T12:57:06;29.00;60.10
21035;DHT22;10676;50.848;3.272;2023-05-25T12:59:34;28.80;60.30
21035;DHT22;10676;50.848;3.272;2023-05-25T13:02:01;28.70;61.40
21035;DHT22;10676;50.848;3.272;2023-05-25T13:04:27;28.60;61.30
21035;DHT22;10676;50.848;3.272;2023-05-25T13:06:53;28.70;61.20
21035;DHT22;10676;50.848;3.272;2023-05-25T13:09:22;28.60;61.30
21035;DHT22;10676;50.848;3.272;2023-05-25T13:11:48;28.50;61.90
21035;DHT22;10676;50.848;3.272;2023-05-25T13:14:13;28.40;61.60
21035;DHT22;10676;50.848;3.272;2023-05-25T13:16:39;28.40;61.60
21035;DHT22;10676;50.848;3.272;2023-05-25T13:19:05;28.50;61.50
21035;DHT22;10676;50.848;3.272;2023-05-25T13:21:31;28.70;61.40
21035;DHT22;10676;50.848;3.272;2023-05-25T13:23:57;28.90;60.80
21035;DHT22;10676;50.848;3.272;2023-05-25T13:26:23;28.90;60.70
21035;DHT22;10676;50.848;3.272;2023-05-25T13:28:50;29.00;60.70
21035;DHT22;10676;50.848;3.272;2023-05-25T13:31:15;29.00;60.80
21035;DHT22;10676;50.848;3.272;2023-05-25T13:33:41;28.90;60.30
21035;DHT22;10676;50.848;3.272;2023-05-25T13:36:07;28.80;60.20
21035;DHT22;10676;50.848;3.272;2023-05-25T13:38:33;28.70;60.50
21035;DHT22;10676;50.848;3.272;2023-05-25T13:41:00;28.50;61.90
21035;DHT22;10676;50.848;3.272;2023-05-25T13:43:26;28.40;60.90
21035;DHT22;10676;50.848;3.272;2023-05-25T13:45:52;28.30;62.00
21035;DHT22;10676;50.848;3.272;2023-05-25T13:48:18;28.30;62.10
21035;DHT22;10676;50.848;3.272;2023-05-25T13:50:43;28.50;61.70
21035;DHT22;10676;50.848;3.272;2023-05-25T13:53:10;28.50;61.20
21035;DHT22;10676;50.848;3.272;2023-05-25T13:55:36;28.40;61.50
21035;DHT22;10676;50.848;3.272;2023-05-25T13:58:02;28.20;61.90
21035;DHT22;10676;50.848;3.272;2023-05-25T14:00:27;28.10;61.90
21035;DHT22;10676;50.848;3.272;2023-05-25T14:02:53;28.10;61.90
21035;DHT22;10676;50.848;3.272;2023-05-25T14:05:19;28.20;61.60
21035;DHT22;10676;50.848;3.272;2023-05-25T14:07:45;28.30;61.60
21035;DHT22;10676;50.848;3.272;2023-05-25T14:10:12;28.50;61.40
21035;DHT22;10676;50.848;3.272;2023-05-25T14:12:37;28.60;60.10
21035;DHT22;10676;50.848;3.272;2023-05-25T14:15:04;28.50;60.10
21035;DHT22;10676;50.848;3.272;2023-05-25T14:17:31;28.30;60.90
21035;DHT22;10676;50.848;3.272;2023-05-25T14:19:56;28.10;61.00
21035;DHT22;10676;50.848;3.272;2023-05-25T14:22:23;27.90;60.70
21035;DHT22;10676;50.848;3.272;2023-05-25T14:24:50;27.70;60.80
21035;DHT22;10676;50.848;3.272;2023-05-25T14:27:16;27.40;61.10
21035;DHT22;10676;50.848;3.272;2023-05-25T14:29:46;27.20;61.70
21035;DHT22;10676;50.848;3.272;2023-05-25T14:32:12;27.10;62.20
21035;DHT22;10676;50.848;3.272;2023-05-25T14:34:39;27.00;63.20
21035;DHT22;10676;50.848;3.272;2023-05-25T14:37:04;27.10;62.80
21035;DHT22;10676;50.848;3.272;2023-05-25T14:39:30;27.20;62.10
21035;DHT22;10676;50.848;3.272;2023-05-25T14:41:56;27.50;62.70
21035;DHT22;10676;50.848;3.272;2023-05-25T14:44:21;27.80;62.00
21035;DHT22;10676;50.848;3.272;2023-05-25T14:46:47;28.10;61.60
21035;DHT22;10676;50.848;3.272;2023-05-25T14:49:13;28.10;61.00
21035;DHT22;10676;50.848;3.272;2023-05-25T14:51:38;28.00;60.80
21035;DHT22;10676;50.848;3.272;2023-05-25T14:54:04;28.00;60.90
21035;DHT22;10676;50.848;3.272;2023-05-25T14:56:32;28.00;60.80
21035;DHT22;10676;50.848;3.272;2023-05-25T14:58:57;28.00;60.70
21035;DHT22;10676;50.848;3.272;2023-05-25T15:01:23;28.10;63.20
21035;DHT22;10676;50.848;3.272;2023-05-25T15:03:49;28.20;64.10
21035;DHT22;10676;50.848;3.272;2023-05-25T15:06:14;28.10;63.00
21035;DHT22;10676;50.848;3.272;2023-05-25T15:08:40;28.00;62.90
21035;DHT22;10676;50.848;3.272;2023-05-25T15:11:09;27.90;64.20
21035;DHT22;10676;50.848;3.272;2023-05-25T15:13:34;28.00;63.70
21035;DHT22;10676;50.848;3.272;2023-05-25T15:16:00;28.10;63.20
21035;DHT22;10676;50.848;3.272;2023-05-25T15:18:26;27.90;63.50
21035;DHT22;10676;50.848;3.272;2023-05-25T15:20:51;27.50;64.30
21035;DHT22;10676;50.848;3.272;2023-05-25T15:23:17;27.30;65.70
21035;DHT22;10676;50.848;3.272;2023-05-25T15:25:43;27.10;66.00
21035;DHT22;10676;50.848;3.272;2023-05-25T15:28:09;27.10;66.60
21035;DHT22;10676;50.848;3.272;2023-05-25T15:30:34;27.00;66.20
21035;DHT22;10676;50.848;3.272;2023-05-25T15:33:01;26.90;67.30
21035;DHT22;10676;50.848;3.272;2023-05-25T15:35:26;26.90;67.70
21035;DHT22;10676;50.848;3.272;2023-05-25T15:37:59;26.80;68.00
21035;DHT22;10676;50.848;3.272;2023-05-25T15:40:25;26.50;68.80
21035;DHT22;10676;50.848;3.272;2023-05-25T15:42:51;26.10;70.00
21035;DHT22;10676;50.848;3.272;2023-05-25T15:45:17;25.80;70.40
21035;DHT22;10676;50.848;3.272;2023-05-25T15:47:43;25.50;70.80
21035;DHT22;10676;50.848;3.272;2023-05-25T15:50:09;25.40;71.50